sensor_id;sensor_type;location;lat;lon;timestamp;pressure;altitude;pressure_sealevel;temperature;humidity
61119;BME280;51448;51.660;5.824;2023-08-24T00:01:10;101722.34;;;18.27;91.10
61119;BME280;51448;51.660;5.824;2023-08-24T00:03:39;101716.13;;;18.27;91.02
61119;BME280;51448;51.660;5.824;2023-08-24T00:06:07;101709.22;;;18.23;91.30
61119;BME280;51448;51.660;5.824;2023-08-24T00:08:35;101710.19;;;18.22;90.96
61119;BME280;51448;51.660;5.824;2023-08-24T00:11:02;101713.91;;;18.18;90.88
61119;BME280;51448;51.660;5.824;2023-08-24T00:13:30;101725.56;;;18.15;91.34
61119;BME280;51448;51.660;5.824;2023-08-24T00:15:57;101714.13;;;18.13;91.25
61119;BME280;51448;51.660;5.824;2023-08-24T00:18:25;101706.22;;;18.12;91.51
61119;BME280;51448;51.660;5.824;2023-08-24T00:20:53;101708.00;;;18.11;91.52
61119;BME280;51448;51.660;5.824;2023-08-24T00:23:21;101708.13;;;18.08;91.52
61119;BME280;51448;51.660;5.824;2023-08-24T00:25:48;101694.03;;;18.06;91.83
61119;BME280;51448;51.660;5.824;2023-08-24T00:28:16;101703.88;;;18.04;92.00
61119;BME280;51448;51.660;5.824;2023-08-24T00:30:43;101695.97;;;18.02;92.17
61119;BME280;51448;51.660;5.824;2023-08-24T00:33:11;101699.63;;;18.00;92.17
61119;BME280;51448;51.660;5.824;2023-08-24T00:35:39;101709.50;;;17.98;92.12
61119;BME280;51448;51.660;5.824;2023-08-24T00:38:07;101706.03;;;17.96;92.23
61119;BME280;51448;51.660;5.824;2023-08-24T00:40:34;101714.06;;;17.94;92.29
61119;BME280;51448;51.660;5.824;2023-08-24T00:43:02;101712.44;;;17.92;92.36
61119;BME280;51448;51.660;5.824;2023-08-24T00:45:30;101711.63;;;17.89;92.19
61119;BME280;51448;51.660;5.824;2023-08-24T00:48:01;101709.03;;;17.88;92.55
61119;BME280;51448;51.660;5.824;2023-08-24T00:50:30;101706.47;;;17.86;92.97
61119;BME280;51448;51.660;5.824;2023-08-24T00:52:57;101703.09;;;17.81;93.31
61119;BME280;51448;51.660;5.824;2023-08-24T00:55:25;101697.94;;;17.78;93.09
61119;BME280;51448;51.660;5.824;2023-08-24T00:57:54;101707.03;;;17.73;93.29
61119;BME280;51448;51.660;5.824;2023-08-24T01:00:23;101716.94;;;17.69;93.45
61119;BME280;51448;51.660;5.824;2023-08-24T01:02:51;101708.22;;;17.65;93.44
61119;BME280;51448;51.660;5.824;2023-08-24T01:05:19;101703.91;;;17.63;93.51
61119;BME280;51448;51.660;5.824;2023-08-24T01:07:47;101692.47;;;17.61;93.59
61119;BME280;51448;51.660;5.824;2023-08-24T01:10:15;101687.22;;;17.59;93.82
61119;BME280;51448;51.660;5.824;2023-08-24T01:13:00;101693.47;;;17.58;94.04
61119;BME280;51448;51.660;5.824;2023-08-24T01:15:56;101693.69;;;17.54;94.21
61119;BME280;51448;51.660;5.824;2023-08-24T01:18:32;101691.34;;;17.46;93.85
61119;BME280;51448;51.660;5.824;2023-08-24T01:21:03;101697.69;;;17.43;93.87
61119;BME280;51448;51.660;5.824;2023-08-24T01:23:46;101682.69;;;17.41;93.70
61119;BME280;51448;51.660;5.824;2023-08-24T01:26:20;101688.16;;;17.38;94.01
61119;BME280;51448;51.660;5.824;2023-08-24T01:28:49;101675.78;;;17.37;94.05
61119;BME280;51448;51.660;5.824;2023-08-24T01:31:17;101681.09;;;17.37;94.08
61119;BME280;51448;51.660;5.824;2023-08-24T01:33:48;101681.97;;;17.37;94.21
61119;BME280;51448;51.660;5.824;2023-08-24T01:36:16;101675.78;;;17.37;94.55
61119;BME280;51448;51.660;5.824;2023-08-24T01:39:07;101683.75;;;17.37;94.78
61119;BME280;51448;51.660;5.824;2023-08-24T01:41:42;101679.50;;;17.33;94.54
61119;BME280;51448;51.660;5.824;2023-08-24T01:44:18;101687.47;;;17.33;94.86
61119;BME280;51448;51.660;5.824;2023-08-24T01:46:49;101669.81;;;17.32;95.04
61119;BME280;51448;51.660;5.824;2023-08-24T01:49:19;101661.84;;;17.32;95.80
61119;BME280;51448;51.660;5.824;2023-08-24T01:51:48;101655.66;;;17.31;96.60
61119;BME280;51448;51.660;5.824;2023-08-24T01:54:17;101666.28;;;17.31;97.00
61119;BME280;51448;51.660;5.824;2023-08-24T01:56:44;101669.81;;;17.32;97.04
61119;BME280;51448;51.660;5.824;2023-08-24T01:59:12;101667.91;;;17.35;97.49
61119;BME280;51448;51.660;5.824;2023-08-24T02:01:40;101665.94;;;17.39;97.59
61119;BME280;51448;51.660;5.824;2023-08-24T02:04:08;101664.97;;;17.41;97.91
61119;BME280;51448;51.660;5.824;2023-08-24T02:06:35;101671.00;;;17.45;98.45
61119;BME280;51448;51.660;5.824;2023-08-24T02:09:03;101677.09;;;17.47;98.76
61119;BME280;51448;51.660;5.824;2023-08-24T02:11:30;101665.56;;;17.48;99.02
61119;BME280;51448;51.660;5.824;2023-08-24T02:13:58;101666.47;;;17.47;98.72
61119;BME280;51448;51.660;5.824;2023-08-24T02:16:25;101673.53;;;17.48;98.84
61119;BME280;51448;51.660;5.824;2023-08-24T02:18:53;101678.84;;;17.48;98.63
61119;BME280;51448;51.660;5.824;2023-08-24T02:21:21;101684.13;;;17.49;98.74
61119;BME280;51448;51.660;5.824;2023-08-24T02:23:48;101677.78;;;17.52;98.73
61119;BME280;51448;51.660;5.824;2023-08-24T02:26:17;101677.78;;;17.52;98.87
61119;BME280;51448;51.660;5.824;2023-08-24T02:28:44;101670.66;;;17.53;99.14
61119;BME280;51448;51.660;5.824;2023-08-24T02:31:12;101652.00;;;17.54;99.43
61119;BME280;51448;51.660;5.824;2023-08-24T02:33:40;101656.31;;;17.57;99.47
61119;BME280;51448;51.660;5.824;2023-08-24T02:36:07;101645.59;;;17.58;99.91
61119;BME280;51448;51.660;5.824;2023-08-24T02:38:35;101658.03;;;17.58;100.00
61119;BME280;51448;51.660;5.824;2023-08-24T02:41:03;101661.63;;;17.57;100.00
61119;BME280;51448;51.660;5.824;2023-08-24T02:43:33;101665.13;;;17.57;100.00
61119;BME280;51448;51.660;5.824;2023-08-24T02:46:06;101665.00;;;17.60;100.00
61119;BME280;51448;51.660;5.824;2023-08-24T02:48:35;101669.38;;;17.61;100.00
61119;BME280;51448;51.660;5.824;2023-08-24T02:51:04;101662.28;;;17.62;100.00
61119;BME280;51448;51.660;5.824;2023-08-24T02:53:32;101659.53;;;17.63;100.00
61119;BME280;51448;51.660;5.824;2023-08-24T02:56:01;101651.56;;;17.63;100.00
61119;BME280;51448;51.660;5.824;2023-08-24T02:58:29;101644.38;;;17.65;100.00
61119;BME280;51448;51.660;5.824;2023-08-24T03:00:57;101624.91;;;17.65;100.00
61119;BME280;51448;51.660;5.824;2023-08-24T03:03:24;101618.72;;;17.64;100.00
61119;BME280;51448;51.660;5.824;2023-08-24T03:08:29;101629.31;;;17.66;100.00
61119;BME280;51448;51.660;5.824;2023-08-24T03:11:00;101618.50;;;17.69;100.00
61119;BME280;51448;51.660;5.824;2023-08-24T03:13:28;101607.88;;;17.69;100.00
61119;BME280;51448;51.660;5.824;2023-08-24T03:16:03;101597.16;;;17.70;100.00
61119;BME280;51448;51.660;5.824;2023-08-24T03:18:32;101605.94;;;17.73;100.00
61119;BME280;51448;51.660;5.824;2023-08-24T03:21:03;101580.13;;;17.75;100.00
61119;BME280;51448;51.660;5.824;2023-08-24T03:23:33;101567.69;;;17.75;100.00
61119;BME280;51448;51.660;5.824;2023-08-24T03:26:01;101559.69;;;17.75;100.00
61119;BME280;51448;51.660;5.824;2023-08-24T03:28:28;101543.72;;;17.75;100.00
61119;BME280;51448;51.660;5.824;2023-08-24T03:30:56;101518.94;;;17.75;100.00
61119;BME280;51448;51.660;5.824;2023-08-24T03:33:24;101506.66;;;17.72;100.00
61119;BME280;51448;51.660;5.824;2023-08-24T03:35:52;101502.25;;;17.71;100.00
61119;BME280;51448;51.660;5.824;2023-08-24T03:38:20;101511.09;;;17.72;100.00
61119;BME280;51448;51.660;5.824;2023-08-24T03:40:47;101516.41;;;17.72;100.00
61119;BME280;51448;51.660;5.824;2023-08-24T03:43:16;101520.75;;;17.74;100.00
61119;BME280;51448;51.660;5.824;2023-08-24T03:45:44;101522.38;;;17.77;100.00
61119;BME280;51448;51.660;5.824;2023-08-24T03:48:11;101523.19;;;17.79;100.00
61119;BME280;51448;51.660;5.824;2023-08-24T03:50:39;101511.69;;;17.78;100.00
61119;BME280;51448;51.660;5.824;2023-08-24T03:53:07;101503.59;;;17.80;100.00
61119;BME280;51448;51.660;5.824;2023-08-24T03:55:34;101485.94;;;17.79;100.00
61119;BME280;51448;51.660;5.824;2023-08-24T03:58:02;101483.09;;;17.82;100.00
61119;BME280;51448;51.660;5.824;2023-08-24T04:00:30;101492.69;;;17.86;100.00
61119;BME280;51448;51.660;5.824;2023-08-24T04:02:59;101511.31;;;17.86;100.00
61119;BME280;51448;51.660;5.824;2023-08-24T04:05:28;101516.59;;;17.87;100.00
61119;BME280;51448;51.660;5.824;2023-08-24T04:07:56;101512.13;;;17.88;100.00
61119;BME280;51448;51.660;5.824;2023-08-24T04:10:25;101515.56;;;17.90;100.00
61119;BME280;51448;51.660;5.824;2023-08-24T04:12:53;101508.38;;;17.92;100.00
61119;BME280;51448;51.660;5.824;2023-08-24T04:15:20;101524.34;;;17.92;100.00
61119;BME280;51448;51.660;5.824;2023-08-24T04:17:49;101508.38;;;17.92;100.00
61119;BME280;51448;51.660;5.824;2023-08-24T04:20:18;101512.78;;;17.93;100.00
61119;BME280;51448;51.660;5.824;2023-08-24T04:22:45;101506.66;;;17.91;100.00
61119;BME280;51448;51.660;5.824;2023-08-24T04:25:13;101517.31;;;17.91;100.00
61119;BME280;51448;51.660;5.824;2023-08-24T04:27:40;101513.69;;;17.92;100.00
61119;BME280;51448;51.660;5.824;2023-08-24T04:30:09;101510.97;;;17.94;100.00
61119;BME280;51448;51.660;5.824;2023-08-24T04:32:39;101510.03;;;17.95;100.00
61119;BME280;51448;51.660;5.824;2023-08-24T04:35:07;101517.06;;;17.96;100.00
61119;BME280;51448;51.660;5.824;2023-08-24T04:37:35;101513.56;;;17.95;100.00
61119;BME280;51448;51.660;5.824;2023-08-24T04:40:06;101512.72;;;17.95;100.00
61119;BME280;51448;51.660;5.824;2023-08-24T04:42:38;101509.16;;;17.94;100.00
61119;BME280;51448;51.660;5.824;2023-08-24T04:45:06;101510.91;;;17.95;100.00
61119;BME280;51448;51.660;5.824;2023-08-24T04:47:34;101497.59;;;17.95;100.00
61119;BME280;51448;51.660;5.824;2023-08-24T04:50:02;101499.25;;;17.98;100.00
61119;BME280;51448;51.660;5.824;2023-08-24T04:52:30;101502.63;;;18.01;100.00
61119;BME280;51448;51.660;5.824;2023-08-24T04:54:59;101495.50;;;18.02;100.00
61119;BME280;51448;51.660;5.824;2023-08-24T04:57:27;101503.41;;;18.03;100.00
61119;BME280;51448;51.660;5.824;2023-08-24T04:59:54;101498.88;;;18.05;100.00
61119;BME280;51448;51.660;5.824;2023-08-24T05:02:22;101513.19;;;18.03;100.00
61119;BME280;51448;51.660;5.824;2023-08-24T05:04:50;101505.34;;;18.00;100.00
61119;BME280;51448;51.660;5.824;2023-08-24T05:07:17;101509.94;;;17.96;100.00
61119;BME280;51448;51.660;5.824;2023-08-24T05:09:45;101498.63;;;17.93;100.00
61119;BME280;51448;51.660;5.824;2023-08-24T05:12:12;101503.22;;;17.89;100.00
61119;BME280;51448;51.660;5.824;2023-08-24T05:14:40;101511.25;;;17.87;100.00
61119;BME280;51448;51.660;5.824;2023-08-24T05:17:07;101509.69;;;17.83;100.00
61119;BME280;51448;51.660;5.824;2023-08-24T05:19:35;101507.22;;;17.79;100.00
61119;BME280;51448;51.660;5.824;2023-08-24T05:22:03;101510.78;;;17.78;100.00
61119;BME280;51448;51.660;5.824;2023-08-24T05:24:31;101505.63;;;17.75;100.00
61119;BME280;51448;51.660;5.824;2023-08-24T05:26:58;101499.53;;;17.73;100.00
61119;BME280;51448;51.660;5.824;2023-08-24T05:29:26;101498.75;;;17.70;100.00
61119;BME280;51448;51.660;5.824;2023-08-24T05:31:53;101499.53;;;17.73;100.00
61119;BME280;51448;51.660;5.824;2023-08-24T05:34:21;101506.50;;;17.75;100.00
61119;BME280;51448;51.660;5.824;2023-08-24T05:36:48;101505.47;;;17.78;100.00
61119;BME280;51448;51.660;5.824;2023-08-24T05:39:16;101514.25;;;17.80;100.00
61119;BME280;51448;51.660;5.824;2023-08-24T05:41:44;101505.28;;;17.82;100.00
61119;BME280;51448;51.660;5.824;2023-08-24T05:44:11;101498.03;;;17.86;100.00
61119;BME280;51448;51.660;5.824;2023-08-24T05:46:39;101496.09;;;17.89;100.00
61119;BME280;51448;51.660;5.824;2023-08-24T05:49:06;101491.53;;;17.92;100.00
61119;BME280;51448;51.660;5.824;2023-08-24T05:51:34;101483.28;;;17.98;100.00
61119;BME280;51448;51.660;5.824;2023-08-24T05:54:01;101483.81;;;18.04;100.00
61119;BME280;51448;51.660;5.824;2023-08-24T05:56:29;101477.28;;;18.12;100.00
61119;BME280;51448;51.660;5.824;2023-08-24T05:58:58;101474.38;;;18.16;100.00
61119;BME280;51448;51.660;5.824;2023-08-24T06:01:26;101475.09;;;18.20;100.00
61119;BME280;51448;51.660;5.824;2023-08-24T06:03:53;101466.88;;;18.24;100.00
61119;BME280;51448;51.660;5.824;2023-08-24T06:06:21;101457.78;;;18.28;100.00
61119;BME280;51448;51.660;5.824;2023-08-24T06:08:48;101460.22;;;18.33;100.00
61119;BME280;51448;51.660;5.824;2023-08-24T06:11:16;101455.66;;;18.35;100.00
61119;BME280;51448;51.660;5.824;2023-08-24T06:13:44;101440.34;;;18.40;100.00
61119;BME280;51448;51.660;5.824;2023-08-24T06:16:11;101434.69;;;18.46;100.00
61119;BME280;51448;51.660;5.824;2023-08-24T06:18:39;101431.63;;;18.54;100.00
61119;BME280;51448;51.660;5.824;2023-08-24T06:21:06;101420.56;;;18.62;100.00
61119;BME280;51448;51.660;5.824;2023-08-24T06:23:35;101411.25;;;18.70;100.00
61119;BME280;51448;51.660;5.824;2023-08-24T06:26:03;101400.97;;;18.80;100.00
61119;BME280;51448;51.660;5.824;2023-08-24T06:28:33;101404.00;;;18.90;100.00
61119;BME280;51448;51.660;5.824;2023-08-24T06:31:01;101400.94;;;18.98;100.00
61119;BME280;51448;51.660;5.824;2023-08-24T06:33:29;101399.63;;;19.05;100.00
61119;BME280;51448;51.660;5.824;2023-08-24T06:36:01;101404.47;;;19.14;100.00
61119;BME280;51448;51.660;5.824;2023-08-24T06:38:30;101411.03;;;19.24;100.00
61119;BME280;51448;51.660;5.824;2023-08-24T06:40:58;101405.94;;;19.36;100.00
61119;BME280;51448;51.660;5.824;2023-08-24T06:43:28;101417.72;;;19.47;100.00
61119;BME280;51448;51.660;5.824;2023-08-24T06:45:56;101423.44;;;19.57;100.00
61119;BME280;51448;51.660;5.824;2023-08-24T06:48:24;101422.72;;;19.69;100.00
61119;BME280;51448;51.660;5.824;2023-08-24T06:50:52;101425.50;;;19.84;100.00
61119;BME280;51448;51.660;5.824;2023-08-24T06:53:19;101433.56;;;19.98;100.00
61119;BME280;51448;51.660;5.824;2023-08-24T06:55:53;101434.31;;;20.16;100.00
61119;BME280;51448;51.660;5.824;2023-08-24T06:58:23;101441.41;;;20.32;100.00
61119;BME280;51448;51.660;5.824;2023-08-24T07:00:50;101440.59;;;20.45;100.00
61119;BME280;51448;51.660;5.824;2023-08-24T07:03:18;101428.03;;;20.62;100.00
61119;BME280;51448;51.660;5.824;2023-08-24T07:05:46;101425.38;;;20.76;100.00
61119;BME280;51448;51.660;5.824;2023-08-24T07:08:14;101416.41;;;20.92;100.00
61119;BME280;51448;51.660;5.824;2023-08-24T07:10:42;101410.09;;;21.07;100.00
61119;BME280;51448;51.660;5.824;2023-08-24T07:13:10;101412.75;;;21.21;100.00
61119;BME280;51448;51.660;5.824;2023-08-24T07:15:37;101408.16;;;21.38;100.00
61119;BME280;51448;51.660;5.824;2023-08-24T07:18:05;101410.72;;;21.54;100.00
61119;BME280;51448;51.660;5.824;2023-08-24T07:20:35;101423.75;;;21.73;100.00
61119;BME280;51448;51.660;5.824;2023-08-24T07:23:04;101417.19;;;21.91;99.27
61119;BME280;51448;51.660;5.824;2023-08-24T07:25:31;101402.97;;;22.03;97.87
61119;BME280;51448;51.660;5.824;2023-08-24T07:28:00;101415.72;;;22.13;97.56
61119;BME280;51448;51.660;5.824;2023-08-24T07:30:28;101415.69;;;22.27;96.96
61119;BME280;51448;51.660;5.824;2023-08-24T07:33:01;101417.22;;;22.44;96.54
61119;BME280;51448;51.660;5.824;2023-08-24T07:35:32;101401.34;;;22.54;95.41
61119;BME280;51448;51.660;5.824;2023-08-24T07:38:00;101409.53;;;22.65;95.38
61119;BME280;51448;51.660;5.824;2023-08-24T07:40:28;101412.28;;;22.76;94.63
61119;BME280;51448;51.660;5.824;2023-08-24T07:42:55;101393.41;;;22.90;94.34
61119;BME280;51448;51.660;5.824;2023-08-24T07:45:24;101393.94;;;23.08;93.89
61119;BME280;51448;51.660;5.824;2023-08-24T07:47:53;101386.28;;;23.28;93.00
61119;BME280;51448;51.660;5.824;2023-08-24T07:50:22;101384.28;;;23.43;91.98
61119;BME280;51448;51.660;5.824;2023-08-24T07:52:50;101389.25;;;23.60;92.50
61119;BME280;51448;51.660;5.824;2023-08-24T07:55:21;101387.16;;;23.77;91.44
61119;BME280;51448;51.660;5.824;2023-08-24T07:57:48;101395.28;;;23.88;88.92
61119;BME280;51448;51.660;5.824;2023-08-24T08:00:17;101394.59;;;23.97;87.98
61119;BME280;51448;51.660;5.824;2023-08-24T08:02:44;101387.91;;;24.03;87.57
61119;BME280;51448;51.660;5.824;2023-08-24T08:05:12;101388.53;;;24.06;87.12
61119;BME280;51448;51.660;5.824;2023-08-24T08:07:40;101388.06;;;24.13;87.36
61119;BME280;51448;51.660;5.824;2023-08-24T08:10:08;101382.94;;;24.21;87.69
61119;BME280;51448;51.660;5.824;2023-08-24T08:12:36;101387.75;;;24.28;87.16
61119;BME280;51448;51.660;5.824;2023-08-24T08:15:04;101379.78;;;24.38;87.72
61119;BME280;51448;51.660;5.824;2023-08-24T08:17:32;101377.25;;;24.48;87.93
61119;BME280;51448;51.660;5.824;2023-08-24T08:20:00;101384.50;;;24.59;87.45
61119;BME280;51448;51.660;5.824;2023-08-24T08:22:29;101393.69;;;24.67;86.50
61119;BME280;51448;51.660;5.824;2023-08-24T08:24:57;101391.50;;;24.73;85.91
61119;BME280;51448;51.660;5.824;2023-08-24T08:27:25;101374.97;;;24.77;85.54
61119;BME280;51448;51.660;5.824;2023-08-24T08:29:52;101372.06;;;24.80;83.99
61119;BME280;51448;51.660;5.824;2023-08-24T08:32:20;101378.28;;;24.81;84.23
61119;BME280;51448;51.660;5.824;2023-08-24T08:34:47;101390.28;;;24.88;83.89
61119;BME280;51448;51.660;5.824;2023-08-24T08:37:15;101382.56;;;24.95;83.78
61119;BME280;51448;51.660;5.824;2023-08-24T08:39:42;101384.50;;;25.04;83.94
61119;BME280;51448;51.660;5.824;2023-08-24T08:42:13;101388.91;;;25.16;83.54
61119;BME280;51448;51.660;5.824;2023-08-24T08:44:44;101386.22;;;25.27;82.97
61119;BME280;51448;51.660;5.824;2023-08-24T08:47:13;101374.22;;;25.32;80.04
61119;BME280;51448;51.660;5.824;2023-08-24T08:49:43;101358.31;;;25.28;79.92
61119;BME280;51448;51.660;5.824;2023-08-24T08:52:11;101355.16;;;25.23;80.38
61119;BME280;51448;51.660;5.824;2023-08-24T08:54:39;101339.22;;;25.20;80.90
61119;BME280;51448;51.660;5.824;2023-08-24T08:57:08;101336.44;;;25.22;80.00
61119;BME280;51448;51.660;5.824;2023-08-24T08:59:36;101332.50;;;25.26;81.07
61119;BME280;51448;51.660;5.824;2023-08-24T09:02:05;101319.88;;;25.38;80.61
61119;BME280;51448;51.660;5.824;2023-08-24T09:04:39;101309.06;;;25.49;81.56
61119;BME280;51448;51.660;5.824;2023-08-24T09:07:06;101300.94;;;25.60;80.00
61119;BME280;51448;51.660;5.824;2023-08-24T09:09:38;101297.59;;;25.68;80.29
61119;BME280;51448;51.660;5.824;2023-08-24T09:12:07;101291.81;;;25.73;79.53
61119;BME280;51448;51.660;5.824;2023-08-24T09:14:35;101283.22;;;25.79;79.61
61119;BME280;51448;51.660;5.824;2023-08-24T09:17:02;101279.28;;;25.83;78.61
61119;BME280;51448;51.660;5.824;2023-08-24T09:19:32;101271.41;;;25.91;79.32
61119;BME280;51448;51.660;5.824;2023-08-24T09:22:03;101268.91;;;25.99;79.65
61119;BME280;51448;51.660;5.824;2023-08-24T09:24:35;101260.41;;;26.04;78.41
61119;BME280;51448;51.660;5.824;2023-08-24T09:27:15;101253.91;;;26.06;78.21
61119;BME280;51448;51.660;5.824;2023-08-24T09:29:52;101239.72;;;26.04;77.91
61119;BME280;51448;51.660;5.824;2023-08-24T09:32:23;101232.88;;;26.00;78.95
61119;BME280;51448;51.660;5.824;2023-08-24T09:34:55;101240.13;;;26.00;78.60
61119;BME280;51448;51.660;5.824;2023-08-24T09:37:22;101225.78;;;25.99;78.72
61119;BME280;51448;51.660;5.824;2023-08-24T09:40:01;101217.91;;;26.07;79.38
61119;BME280;51448;51.660;5.824;2023-08-24T09:42:37;101227.59;;;26.20;79.81
61119;BME280;51448;51.660;5.824;2023-08-24T09:45:13;101225.06;;;26.28;77.77
61119;BME280;51448;51.660;5.824;2023-08-24T09:47:51;101229.47;;;26.29;78.00
61119;BME280;51448;51.660;5.824;2023-08-24T09:50:19;101246.09;;;26.34;78.79
61119;BME280;51448;51.660;5.824;2023-08-24T09:52:47;101267.84;;;26.42;79.83
61119;BME280;51448;51.660;5.824;2023-08-24T09:55:20;101285.19;;;26.49;80.25
61119;BME280;51448;51.660;5.824;2023-08-24T09:57:53;101290.53;;;26.61;79.53
61119;BME280;51448;51.660;5.824;2023-08-24T10:00:25;101291.66;;;26.68;79.14
61119;BME280;51448;51.660;5.824;2023-08-24T10:02:54;101286.00;;;26.71;78.21
61119;BME280;51448;51.660;5.824;2023-08-24T10:05:24;101271.38;;;26.74;78.47
61119;BME280;51448;51.660;5.824;2023-08-24T10:07:57;101270.41;;;26.75;78.10
61119;BME280;51448;51.660;5.824;2023-08-24T10:10:25;101277.78;;;26.82;78.20
61119;BME280;51448;51.660;5.824;2023-08-24T10:13:00;101273.28;;;26.93;78.13
61119;BME280;51448;51.660;5.824;2023-08-24T10:15:37;101274.44;;;27.00;76.54
61119;BME280;51448;51.660;5.824;2023-08-24T10:18:15;101268.19;;;26.99;78.21
61119;BME280;51448;51.660;5.824;2023-08-24T10:20:44;101269.63;;;27.03;77.93
61119;BME280;51448;51.660;5.824;2023-08-24T10:23:15;101264.63;;;26.99;76.29
61119;BME280;51448;51.660;5.824;2023-08-24T10:25:46;101273.56;;;26.89;77.46
61119;BME280;51448;51.660;5.824;2023-08-24T10:28:14;101263.63;;;26.90;77.32
61119;BME280;51448;51.660;5.824;2023-08-24T10:30:44;101271.59;;;26.92;77.21
61119;BME280;51448;51.660;5.824;2023-08-24T10:33:13;101260.50;;;26.95;77.54
61119;BME280;51448;51.660;5.824;2023-08-24T10:35:43;101261.06;;;26.98;76.77
61119;BME280;51448;51.660;5.824;2023-08-24T10:38:23;101254.25;;;26.94;77.41
61119;BME280;51448;51.660;5.824;2023-08-24T10:41:05;101243.44;;;26.94;76.85
61119;BME280;51448;51.660;5.824;2023-08-24T10:43:37;101250.84;;;26.92;76.87
61119;BME280;51448;51.660;5.824;2023-08-24T10:46:12;101243.75;;;26.91;77.54
61119;BME280;51448;51.660;5.824;2023-08-24T10:53:51;101241.44;;;26.77;77.06
61119;BME280;51448;51.660;5.824;2023-08-24T10:56:21;101259.75;;;26.73;77.86
61119;BME280;51448;51.660;5.824;2023-08-24T10:59:11;101256.03;;;26.74;77.35
61119;BME280;51448;51.660;5.824;2023-08-24T11:01:41;101258.91;;;26.73;77.46
61119;BME280;51448;51.660;5.824;2023-08-24T11:04:21;101267.84;;;26.73;77.82
61119;BME280;51448;51.660;5.824;2023-08-24T11:07:00;101278.63;;;26.73;78.60
61119;BME280;51448;51.660;5.824;2023-08-24T11:09:48;101287.72;;;26.72;78.66
61119;BME280;51448;51.660;5.824;2023-08-24T11:12:15;101288.97;;;26.68;79.01
61119;BME280;51448;51.660;5.824;2023-08-24T11:14:50;101280.03;;;26.67;78.23
61119;BME280;51448;51.660;5.824;2023-08-24T11:17:21;101276.75;;;26.64;78.19
61119;BME280;51448;51.660;5.824;2023-08-24T11:19:52;101264.13;;;26.64;78.19
61119;BME280;51448;51.660;5.824;2023-08-24T11:22:21;101248.09;;;26.63;78.87
61119;BME280;51448;51.660;5.824;2023-08-24T11:24:52;101221.53;;;26.68;77.37
61119;BME280;51448;51.660;5.824;2023-08-24T11:27:23;101222.41;;;26.78;77.52
61119;BME280;51448;51.660;5.824;2023-08-24T11:29:59;101244.16;;;26.86;77.60
61119;BME280;51448;51.660;5.824;2023-08-24T11:32:27;101240.31;;;26.99;77.08
61119;BME280;51448;51.660;5.824;2023-08-24T11:34:55;101239.19;;;27.11;76.20
61119;BME280;51448;51.660;5.824;2023-08-24T11:37:23;101246.34;;;27.22;75.61
61119;BME280;51448;51.660;5.824;2023-08-24T11:39:52;101255.47;;;27.31;75.69
61119;BME280;51448;51.660;5.824;2023-08-24T11:42:20;101238.81;;;27.35;75.79
61119;BME280;51448;51.660;5.824;2023-08-24T11:44:48;101234.97;;;27.38;74.97
61119;BME280;51448;51.660;5.824;2023-08-24T11:47:19;101218.06;;;27.36;74.81
61119;BME280;51448;51.660;5.824;2023-08-24T11:49:47;101208.28;;;27.35;74.85
61119;BME280;51448;51.660;5.824;2023-08-24T11:52:16;101192.06;;;27.35;74.21
61119;BME280;51448;51.660;5.824;2023-08-24T11:54:44;101187.66;;;27.34;74.16
61119;BME280;51448;51.660;5.824;2023-08-24T11:57:13;101186.81;;;27.33;74.18
61119;BME280;51448;51.660;5.824;2023-08-24T11:59:42;101177.00;;;27.32;74.22
61119;BME280;51448;51.660;5.824;2023-08-24T12:02:10;101169.63;;;27.34;74.61
61119;BME280;51448;51.660;5.824;2023-08-24T12:04:40;101157.94;;;27.34;73.83
61119;BME280;51448;51.660;5.824;2023-08-24T12:07:11;101141.19;;;27.30;74.56
61119;BME280;51448;51.660;5.824;2023-08-24T12:09:41;101139.63;;;27.27;73.63
61119;BME280;51448;51.660;5.824;2023-08-24T12:12:13;101131.22;;;27.21;73.56
61119;BME280;51448;51.660;5.824;2023-08-24T12:14:45;101126.41;;;27.15;73.93
61119;BME280;51448;51.660;5.824;2023-08-24T12:17:16;101125.13;;;27.09;74.33
61119;BME280;51448;51.660;5.824;2023-08-24T12:19:45;101117.19;;;27.07;74.19
61119;BME280;51448;51.660;5.824;2023-08-24T12:22:24;101108.50;;;27.04;74.40
61119;BME280;51448;51.660;5.824;2023-08-24T12:24:52;101107.38;;;27.06;75.09
61119;BME280;51448;51.660;5.824;2023-08-24T12:27:24;101101.25;;;27.14;75.73
61119;BME280;51448;51.660;5.824;2023-08-24T12:29:54;101094.03;;;27.24;75.85
61119;BME280;51448;51.660;5.824;2023-08-24T12:32:21;101091.44;;;27.33;75.79
61119;BME280;51448;51.660;5.824;2023-08-24T12:34:53;101095.41;;;27.38;75.14
61119;BME280;51448;51.660;5.824;2023-08-24T12:37:22;101088.03;;;27.40;75.40
61119;BME280;51448;51.660;5.824;2023-08-24T12:39:49;101096.97;;;27.41;75.52
61119;BME280;51448;51.660;5.824;2023-08-24T12:42:17;101098.97;;;27.39;75.46
61119;BME280;51448;51.660;5.824;2023-08-24T12:44:44;101094.84;;;27.35;75.42
61119;BME280;51448;51.660;5.824;2023-08-24T12:47:12;101072.81;;;27.29;75.40
61119;BME280;51448;51.660;5.824;2023-08-24T12:49:39;101071.56;;;27.24;76.14
61119;BME280;51448;51.660;5.824;2023-08-24T12:52:07;101077.09;;;27.22;76.45
61119;BME280;51448;51.660;5.824;2023-08-24T12:54:35;101097.13;;;27.20;76.15
61119;BME280;51448;51.660;5.824;2023-08-24T12:57:02;101116.16;;;27.18;76.31
61119;BME280;51448;51.660;5.824;2023-08-24T12:59:30;101114.75;;;27.14;76.10
61119;BME280;51448;51.660;5.824;2023-08-24T13:01:58;101127.81;;;27.09;76.33
61119;BME280;51448;51.660;5.824;2023-08-24T13:04:26;101124.97;;;27.01;76.57